sensor_id;sensor_type;location;lat;lon;timestamp;P1;durP1;ratioP1;P2;durP2;ratioP2
9388;SDS011;4734;52.778;6.798;2023-07-08T00:02:27;6.50;;;4.07;;
9388;SDS011;4734;52.778;6.798;2023-07-08T00:05:13;4.95;;;3.65;;
9388;SDS011;4734;52.778;6.798;2023-07-08T00:08:00;3.97;;;3.67;;
9388;SDS011;4734;52.778;6.798;2023-07-08T00:10:46;4.25;;;3.67;;
9388;SDS011;4734;52.778;6.798;2023-07-08T00:13:33;3.97;;;3.53;;
9388;SDS011;4734;52.778;6.798;2023-07-08T00:16:19;5.55;;;3.97;;
9388;SDS011;4734;52.778;6.798;2023-07-08T00:19:07;5.05;;;4.10;;
9388;SDS011;4734;52.778;6.798;2023-07-08T00:21:53;4.15;;;3.50;;
9388;SDS011;4734;52.778;6.798;2023-07-08T00:24:39;6.38;;;4.00;;
9388;SDS011;4734;52.778;6.798;2023-07-08T00:27:25;4.25;;;3.85;;
9388;SDS011;4734;52.778;6.798;2023-07-08T00:30:19;5.40;;;3.78;;
9388;SDS011;4734;52.778;6.798;2023-07-08T00:33:06;7.28;;;4.10;;
9388;SDS011;4734;52.778;6.798;2023-07-08T00:35:52;4.50;;;4.10;;
9388;SDS011;4734;52.778;6.798;2023-07-08T00:38:37;7.10;;;4.00;;
9388;SDS011;4734;52.778;6.798;2023-07-08T00:41:28;4.10;;;3.80;;
9388;SDS011;4734;52.778;6.798;2023-07-08T00:44:18;3.78;;;3.40;;
9388;SDS011;4734;52.778;6.798;2023-07-08T00:47:08;3.72;;;3.38;;
9388;SDS011;4734;52.778;6.798;2023-07-08T00:49:58;4.43;;;4.03;;
9388;SDS011;4734;52.778;6.798;2023-07-08T00:52:49;4.78;;;3.97;;
9388;SDS011;4734;52.778;6.798;2023-07-08T00:55:36;6.03;;;4.10;;
9388;SDS011;4734;52.778;6.798;2023-07-08T00:58:21;4.35;;;3.95;;
9388;SDS011;4734;52.778;6.798;2023-07-08T01:01:10;6.15;;;4.05;;
9388;SDS011;4734;52.778;6.798;2023-07-08T01:03:59;5.95;;;4.25;;
9388;SDS011;4734;52.778;6.798;2023-07-08T01:06:49;4.50;;;4.10;;
9388;SDS011;4734;52.778;6.798;2023-07-08T01:09:41;6.40;;;3.97;;
9388;SDS011;4734;52.778;6.798;2023-07-08T01:12:30;4.70;;;3.83;;
9388;SDS011;4734;52.778;6.798;2023-07-08T01:15:18;4.72;;;4.28;;
9388;SDS011;4734;52.778;6.798;2023-07-08T01:18:06;4.82;;;4.05;;
9388;SDS011;4734;52.778;6.798;2023-07-08T01:20:55;7.13;;;4.10;;
9388;SDS011;4734;52.778;6.798;2023-07-08T01:23:46;4.60;;;4.20;;
9388;SDS011;4734;52.778;6.798;2023-07-08T01:26:33;7.43;;;4.28;;
9388;SDS011;4734;52.778;6.798;2023-07-08T01:29:20;4.22;;;3.78;;
9388;SDS011;4734;52.778;6.798;2023-07-08T01:32:06;4.30;;;3.50;;
9388;SDS011;4734;52.778;6.798;2023-07-08T01:35:01;4.47;;;4.07;;
9388;SDS011;4734;52.778;6.798;2023-07-08T01:37:48;5.20;;;4.38;;
9388;SDS011;4734;52.778;6.798;2023-07-08T01:40:46;5.32;;;4.25;;
9388;SDS011;4734;52.778;6.798;2023-07-08T01:43:33;5.57;;;4.60;;
9388;SDS011;4734;52.778;6.798;2023-07-08T01:46:20;5.20;;;4.70;;
9388;SDS011;4734;52.778;6.798;2023-07-08T01:49:08;6.40;;;4.38;;
9388;SDS011;4734;52.778;6.798;2023-07-08T01:51:54;5.93;;;4.45;;
9388;SDS011;4734;52.778;6.798;2023-07-08T01:54:40;4.88;;;4.38;;
9388;SDS011;4734;52.778;6.798;2023-07-08T01:57:27;5.57;;;4.07;;
9388;SDS011;4734;52.778;6.798;2023-07-08T02:00:13;6.20;;;4.60;;
9388;SDS011;4734;52.778;6.798;2023-07-08T02:02:59;6.55;;;5.70;;
9388;SDS011;4734;52.778;6.798;2023-07-08T02:05:44;6.97;;;6.25;;
9388;SDS011;4734;52.778;6.798;2023-07-08T02:08:30;9.15;;;7.03;;
9388;SDS011;4734;52.778;6.798;2023-07-08T02:11:16;7.95;;;7.13;;
9388;SDS011;4734;52.778;6.798;2023-07-08T02:14:03;8.00;;;7.20;;
9388;SDS011;4734;52.778;6.798;2023-07-08T02:16:49;8.75;;;7.38;;
9388;SDS011;4734;52.778;6.798;2023-07-08T02:19:35;8.18;;;6.90;;
9388;SDS011;4734;52.778;6.798;2023-07-08T02:22:20;8.35;;;7.15;;
9388;SDS011;4734;52.778;6.798;2023-07-08T02:25:06;7.80;;;6.97;;
9388;SDS011;4734;52.778;6.798;2023-07-08T02:27:52;7.55;;;6.80;;
9388;SDS011;4734;52.778;6.798;2023-07-08T02:30:42;7.60;;;6.82;;
9388;SDS011;4734;52.778;6.798;2023-07-08T02:33:29;7.82;;;7.03;;
9388;SDS011;4734;52.778;6.798;2023-07-08T02:36:16;9.57;;;8.00;;
9388;SDS011;4734;52.778;6.798;2023-07-08T02:39:01;8.82;;;7.95;;
9388;SDS011;4734;52.778;6.798;2023-07-08T02:41:47;8.90;;;8.00;;
9388;SDS011;4734;52.778;6.798;2023-07-08T02:44:33;8.85;;;7.95;;
9388;SDS011;4734;52.778;6.798;2023-07-08T02:47:20;8.98;;;8.18;;
9388;SDS011;4734;52.778;6.798;2023-07-08T02:50:06;11.30;;;8.10;;
9388;SDS011;4734;52.778;6.798;2023-07-08T02:52:53;7.72;;;6.93;;
9388;SDS011;4734;52.778;6.798;2023-07-08T02:55:39;8.18;;;7.38;;
9388;SDS011;4734;52.778;6.798;2023-07-08T02:58:26;7.93;;;7.20;;
9388;SDS011;4734;52.778;6.798;2023-07-08T03:01:12;7.90;;;7.18;;
9388;SDS011;4734;52.778;6.798;2023-07-08T03:04:03;8.25;;;7.45;;
9388;SDS011;4734;52.778;6.798;2023-07-08T03:06:50;8.25;;;7.25;;
9388;SDS011;4734;52.778;6.798;2023-07-08T03:09:36;8.18;;;7.40;;
9388;SDS011;4734;52.778;6.798;2023-07-08T03:12:21;7.72;;;7.00;;
9388;SDS011;4734;52.778;6.798;2023-07-08T03:15:07;9.35;;;7.38;;
9388;SDS011;4734;52.778;6.798;2023-07-08T03:17:53;7.90;;;6.88;;
9388;SDS011;4734;52.778;6.798;2023-07-08T03:20:47;7.40;;;6.60;;
9388;SDS011;4734;52.778;6.798;2023-07-08T03:23:33;7.68;;;6.80;;
9388;SDS011;4734;52.778;6.798;2023-07-08T03:26:19;7.43;;;6.72;;
9388;SDS011;4734;52.778;6.798;2023-07-08T03:29:05;8.13;;;7.22;;
9388;SDS011;4734;52.778;6.798;2023-07-08T03:31:56;10.40;;;6.95;;
9388;SDS011;4734;52.778;6.798;2023-07-08T03:34:42;7.97;;;7.15;;
9388;SDS011;4734;52.778;6.798;2023-07-08T03:37:29;9.77;;;7.90;;
9388;SDS011;4734;52.778;6.798;2023-07-08T03:40:15;9.13;;;6.95;;
9388;SDS011;4734;52.778;6.798;2023-07-08T03:43:00;8.07;;;7.13;;
9388;SDS011;4734;52.778;6.798;2023-07-08T03:45:46;7.43;;;6.70;;
9388;SDS011;4734;52.778;6.798;2023-07-08T03:48:32;9.27;;;6.22;;
9388;SDS011;4734;52.778;6.798;2023-07-08T03:51:20;7.20;;;6.18;;
9388;SDS011;4734;52.778;6.798;2023-07-08T03:54:10;6.53;;;5.63;;
9388;SDS011;4734;52.778;6.798;2023-07-08T03:56:58;6.25;;;5.20;;
9388;SDS011;4734;52.778;6.798;2023-07-08T03:59:43;6.25;;;5.57;;
9388;SDS011;4734;52.778;6.798;2023-07-08T04:02:29;6.38;;;5.78;;
9388;SDS011;4734;52.778;6.798;2023-07-08T04:05:15;7.13;;;5.05;;
9388;SDS011;4734;52.778;6.798;2023-07-08T04:08:02;7.13;;;5.15;;
9388;SDS011;4734;52.778;6.798;2023-07-08T04:10:50;6.57;;;5.80;;
9388;SDS011;4734;52.778;6.798;2023-07-08T04:13:35;7.40;;;5.13;;
9388;SDS011;4734;52.778;6.798;2023-07-08T04:16:21;7.28;;;5.28;;
9388;SDS011;4734;52.778;6.798;2023-07-08T04:19:12;6.20;;;4.95;;
9388;SDS011;4734;52.778;6.798;2023-07-08T04:22:00;5.30;;;4.80;;
9388;SDS011;4734;52.778;6.798;2023-07-08T04:24:46;6.35;;;5.28;;
9388;SDS011;4734;52.778;6.798;2023-07-08T04:27:33;6.75;;;5.15;;
9388;SDS011;4734;52.778;6.798;2023-07-08T04:30:20;6.28;;;5.18;;
9388;SDS011;4734;52.778;6.798;2023-07-08T04:33:07;6.03;;;4.70;;
9388;SDS011;4734;52.778;6.798;2023-07-08T04:35:53;7.45;;;5.28;;
9388;SDS011;4734;52.778;6.798;2023-07-08T04:38:39;7.63;;;4.97;;
9388;SDS011;4734;52.778;6.798;2023-07-08T04:41:30;6.15;;;5.15;;
9388;SDS011;4734;52.778;6.798;2023-07-08T04:44:17;8.82;;;5.95;;
9388;SDS011;4734;52.778;6.798;2023-07-08T04:47:03;6.10;;;5.50;;
9388;SDS011;4734;52.778;6.798;2023-07-08T04:49:49;5.65;;;5.15;;
9388;SDS011;4734;52.778;6.798;2023-07-08T04:52:34;6.15;;;5.22;;
9388;SDS011;4734;52.778;6.798;2023-07-08T04:55:21;8.15;;;5.75;;
9388;SDS011;4734;52.778;6.798;2023-07-08T04:58:07;8.82;;;5.80;;
9388;SDS011;4734;52.778;6.798;2023-07-08T05:00:54;12.63;;;5.97;;
9388;SDS011;4734;52.778;6.798;2023-07-08T05:03:40;7.22;;;5.95;;
9388;SDS011;4734;52.778;6.798;2023-07-08T05:06:25;7.03;;;5.53;;
9388;SDS011;4734;52.778;6.798;2023-07-08T05:09:11;7.72;;;6.05;;
9388;SDS011;4734;52.778;6.798;2023-07-08T05:11:57;7.88;;;5.90;;
9388;SDS011;4734;52.778;6.798;2023-07-08T05:14:42;6.00;;;5.40;;
9388;SDS011;4734;52.778;6.798;2023-07-08T05:17:29;7.90;;;5.47;;
9388;SDS011;4734;52.778;6.798;2023-07-08T05:20:15;6.88;;;5.32;;
9388;SDS011;4734;52.778;6.798;2023-07-08T05:23:02;6.18;;;4.85;;
9388;SDS011;4734;52.778;6.798;2023-07-08T05:25:47;6.55;;;5.40;;
9388;SDS011;4734;52.778;6.798;2023-07-08T05:28:33;5.95;;;5.45;;
9388;SDS011;4734;52.778;6.798;2023-07-08T05:31:19;6.28;;;5.38;;
9388;SDS011;4734;52.778;6.798;2023-07-08T05:34:06;7.07;;;4.93;;
9388;SDS011;4734;52.778;6.798;2023-07-08T05:36:51;5.78;;;5.20;;
9388;SDS011;4734;52.778;6.798;2023-07-08T05:39:36;5.53;;;4.97;;
9388;SDS011;4734;52.778;6.798;2023-07-08T05:42:22;5.78;;;5.18;;
9388;SDS011;4734;52.778;6.798;2023-07-08T05:45:09;5.32;;;4.82;;
9388;SDS011;4734;52.778;6.798;2023-07-08T05:47:55;5.68;;;5.10;;
9388;SDS011;4734;52.778;6.798;2023-07-08T05:50:42;5.63;;;5.13;;
9388;SDS011;4734;52.778;6.798;2023-07-08T05:53:29;5.50;;;4.78;;
9388;SDS011;4734;52.778;6.798;2023-07-08T05:56:15;5.18;;;4.68;;
9388;SDS011;4734;52.778;6.798;2023-07-08T05:59:01;5.10;;;4.40;;
9388;SDS011;4734;52.778;6.798;2023-07-08T06:01:47;5.75;;;4.75;;
9388;SDS011;4734;52.778;6.798;2023-07-08T06:04:32;5.75;;;4.68;;
9388;SDS011;4734;52.778;6.798;2023-07-08T06:07:19;5.53;;;4.38;;
9388;SDS011;4734;52.778;6.798;2023-07-08T06:10:05;5.63;;;4.63;;
9388;SDS011;4734;52.778;6.798;2023-07-08T06:12:51;7.45;;;4.35;;
9388;SDS011;4734;52.778;6.798;2023-07-08T06:15:37;5.40;;;4.47;;
9388;SDS011;4734;52.778;6.798;2023-07-08T06:18:22;6.10;;;4.38;;
9388;SDS011;4734;52.778;6.798;2023-07-08T06:21:08;4.38;;;3.97;;
9388;SDS011;4734;52.778;6.798;2023-07-08T06:23:55;4.95;;;4.22;;
9388;SDS011;4734;52.778;6.798;2023-07-08T06:26:41;10.05;;;4.25;;
9388;SDS011;4734;52.778;6.798;2023-07-08T06:29:26;4.82;;;4.13;;
9388;SDS011;4734;52.778;6.798;2023-07-08T06:32:12;7.05;;;4.40;;
9388;SDS011;4734;52.778;6.798;2023-07-08T06:34:58;4.47;;;4.00;;
9388;SDS011;4734;52.778;6.798;2023-07-08T06:37:43;4.38;;;4.03;;
9388;SDS011;4734;52.778;6.798;2023-07-08T06:40:31;5.35;;;3.95;;
9388;SDS011;4734;52.778;6.798;2023-07-08T06:43:16;5.05;;;3.78;;
9388;SDS011;4734;52.778;6.798;2023-07-08T06:46:02;4.45;;;3.72;;
9388;SDS011;4734;52.778;6.798;2023-07-08T06:48:48;6.28;;;3.78;;
9388;SDS011;4734;52.778;6.798;2023-07-08T06:51:34;4.50;;;4.10;;
9388;SDS011;4734;52.778;6.798;2023-07-08T06:54:20;4.57;;;3.42;;
9388;SDS011;4734;52.778;6.798;2023-07-08T06:57:07;4.60;;;3.13;;
9388;SDS011;4734;52.778;6.798;2023-07-08T06:59:52;3.50;;;3.20;;
9388;SDS011;4734;52.778;6.798;2023-07-08T07:02:38;4.10;;;3.55;;
9388;SDS011;4734;52.778;6.798;2023-07-08T07:05:24;6.32;;;3.63;;
9388;SDS011;4734;52.778;6.798;2023-07-08T07:08:09;3.83;;;3.40;;
9388;SDS011;4734;52.778;6.798;2023-07-08T07:10:55;3.53;;;3.22;;
9388;SDS011;4734;52.778;6.798;2023-07-08T07:13:42;3.50;;;3.20;;
9388;SDS011;4734;52.778;6.798;2023-07-08T07:16:28;7.95;;;3.20;;
9388;SDS011;4734;52.778;6.798;2023-07-08T07:19:13;6.80;;;3.17;;
9388;SDS011;4734;52.778;6.798;2023-07-08T07:21:59;4.63;;;3.22;;
9388;SDS011;4734;52.778;6.798;2023-07-08T07:24:45;4.50;;;3.00;;
9388;SDS011;4734;52.778;6.798;2023-07-08T07:27:30;6.47;;;3.65;;
9388;SDS011;4734;52.778;6.798;2023-07-08T07:30:17;4.90;;;3.25;;
9388;SDS011;4734;52.778;6.798;2023-07-08T07:33:03;4.68;;;3.22;;
9388;SDS011;4734;52.778;6.798;2023-07-08T07:35:49;3.30;;;3.00;;
9388;SDS011;4734;52.778;6.798;2023-07-08T07:38:34;5.03;;;3.40;;
9388;SDS011;4734;52.778;6.798;2023-07-08T07:41:20;3.83;;;3.25;;
9388;SDS011;4734;52.778;6.798;2023-07-08T07:44:07;4.22;;;3.00;;
9388;SDS011;4734;52.778;6.798;2023-07-08T07:46:54;3.17;;;2.90;;
9388;SDS011;4734;52.778;6.798;2023-07-08T07:49:40;3.97;;;3.00;;
9388;SDS011;4734;52.778;6.798;2023-07-08T07:52:31;3.10;;;2.80;;
9388;SDS011;4734;52.778;6.798;2023-07-08T07:55:17;4.30;;;3.00;;
9388;SDS011;4734;52.778;6.798;2023-07-08T07:58:03;4.70;;;3.05;;
9388;SDS011;4734;52.778;6.798;2023-07-08T08:00:49;2.80;;;2.60;;
9388;SDS011;4734;52.778;6.798;2023-07-08T08:03:36;3.88;;;2.80;;
9388;SDS011;4734;52.778;6.798;2023-07-08T08:06:22;11.45;;;3.40;;
9388;SDS011;4734;52.778;6.798;2023-07-08T08:09:07;3.30;;;2.97;;
9388;SDS011;4734;52.778;6.798;2023-07-08T08:11:53;3.00;;;2.80;;
9388;SDS011;4734;52.778;6.798;2023-07-08T08:14:39;10.38;;;3.17;;
9388;SDS011;4734;52.778;6.798;2023-07-08T08:17:24;3.42;;;3.00;;
9388;SDS011;4734;52.778;6.798;2023-07-08T08:20:11;4.80;;;3.10;;
9388;SDS011;4734;52.778;6.798;2023-07-08T08:22:57;3.58;;;2.63;;
9388;SDS011;4734;52.778;6.798;2023-07-08T08:25:43;8.40;;;2.97;;
9388;SDS011;4734;52.778;6.798;2023-07-08T08:28:28;3.17;;;2.72;;
9388;SDS011;4734;52.778;6.798;2023-07-08T08:31:14;6.05;;;2.83;;
9388;SDS011;4734;52.778;6.798;2023-07-08T08:33:59;3.97;;;2.88;;
9388;SDS011;4734;52.778;6.798;2023-07-08T08:36:47;3.13;;;2.78;;
9388;SDS011;4734;52.778;6.798;2023-07-08T08:39:57;6.82;;;2.63;;
9388;SDS011;4734;52.778;6.798;2023-07-08T08:43:06;3.63;;;3.25;;
9388;SDS011;4734;52.778;6.798;2023-07-08T08:45:59;3.30;;;3.00;;
9388;SDS011;4734;52.778;6.798;2023-07-08T08:48:50;4.40;;;3.22;;
9388;SDS011;4734;52.778;6.798;2023-07-08T08:51:41;3.15;;;2.92;;
9388;SDS011;4734;52.778;6.798;2023-07-08T08:54:28;5.13;;;2.92;;
9388;SDS011;4734;52.778;6.798;2023-07-08T08:57:18;3.83;;;3.00;;
9388;SDS011;4734;52.778;6.798;2023-07-08T09:00:14;3.42;;;3.10;;
9388;SDS011;4734;52.778;6.798;2023-07-08T09:03:06;6.15;;;3.10;;
9388;SDS011;4734;52.778;6.798;2023-07-08T09:05:55;4.40;;;3.17;;
9388;SDS011;4734;52.778;6.798;2023-07-08T09:08:42;3.60;;;3.28;;
9388;SDS011;4734;52.778;6.798;2023-07-08T09:11:36;8.85;;;3.15;;
9388;SDS011;4734;52.778;6.798;2023-07-08T09:14:33;3.30;;;3.00;;
9388;SDS011;4734;52.778;6.798;2023-07-08T09:17:20;5.28;;;3.15;;
9388;SDS011;4734;52.778;6.798;2023-07-08T09:20:12;4.15;;;3.10;;
9388;SDS011;4734;52.778;6.798;2023-07-08T09:23:09;3.42;;;2.83;;
9388;SDS011;4734;52.778;6.798;2023-07-08T09:26:03;3.38;;;3.08;;
9388;SDS011;4734;52.778;6.798;2023-07-08T09:28:53;11.15;;;3.47;;
9388;SDS011;4734;52.778;6.798;2023-07-08T09:31:39;3.30;;;3.05;;
9388;SDS011;4734;52.778;6.798;2023-07-08T09:34:35;3.25;;;3.05;;
9388;SDS011;4734;52.778;6.798;2023-07-08T09:37:26;3.40;;;3.13;;
9388;SDS011;4734;52.778;6.798;2023-07-08T09:40:15;3.63;;;3.08;;
9388;SDS011;4734;52.778;6.798;2023-07-08T09:43:02;2.88;;;2.67;;
9388;SDS011;4734;52.778;6.798;2023-07-08T09:45:59;3.53;;;3.22;;
9388;SDS011;4734;52.778;6.798;2023-07-08T09:48:44;3.88;;;2.90;;
9388;SDS011;4734;52.778;6.798;2023-07-08T09:51:30;4.20;;;2.58;;
9388;SDS011;4734;52.778;6.798;2023-07-08T09:54:16;3.67;;;3.10;;
9388;SDS011;4734;52.778;6.798;2023-07-08T09:57:02;4.15;;;2.80;;
9388;SDS011;4734;52.778;6.798;2023-07-08T09:59:56;3.05;;;2.70;;
9388;SDS011;4734;52.778;6.798;2023-07-08T10:02:49;5.38;;;3.00;;
9388;SDS011;4734;52.778;6.798;2023-07-08T10:05:38;4.25;;;2.92;;
9388;SDS011;4734;52.778;6.798;2023-07-08T10:08:28;3.83;;;3.03;;
9388;SDS011;4734;52.778;6.798;2023-07-08T10:11:25;5.53;;;3.00;;
9388;SDS011;4734;52.778;6.798;2023-07-08T10:14:15;11.63;;;3.20;;
9388;SDS011;4734;52.778;6.798;2023-07-08T10:17:07;3.92;;;2.70;;
9388;SDS011;4734;52.778;6.798;2023-07-08T10:20:00;7.05;;;3.25;;
9388;SDS011;4734;52.778;6.798;2023-07-08T10:22:57;5.35;;;3.25;;
9388;SDS011;4734;52.778;6.798;2023-07-08T10:25:52;3.03;;;2.83;;
9388;SDS011;4734;52.778;6.798;2023-07-08T10:28:49;4.75;;;3.30;;
9388;SDS011;4734;52.778;6.798;2023-07-08T10:31:46;3.42;;;3.15;;
9388;SDS011;4734;52.778;6.798;2023-07-08T10:34:38;3.00;;;2.80;;
9388;SDS011;4734;52.778;6.798;2023-07-08T10:37:32;3.60;;;3.30;;
9388;SDS011;4734;52.778;6.798;2023-07-08T10:40:31;4.97;;;3.17;;
9388;SDS011;4734;52.778;6.798;2023-07-08T10:43:35;3.78;;;2.78;;
9388;SDS011;4734;52.778;6.798;2023-07-08T10:46:39;4.80;;;2.67;;
9388;SDS011;4734;52.778;6.798;2023-07-08T10:49:35;3.88;;;3.42;;
9388;SDS011;4734;52.778;6.798;2023-07-08T10:52:40;3.33;;;3.03;;
9388;SDS011;4734;52.778;6.798;2023-07-08T10:55:38;4.10;;;3.00;;
9388;SDS011;4734;52.778;6.798;2023-07-08T11:01:48;3.00;;;2.80;;
9388;SDS011;4734;52.778;6.798;2023-07-08T11:04:52;3.17;;;2.90;;
9388;SDS011;4734;52.778;6.798;2023-07-08T11:07:50;5.05;;;3.65;;
9388;SDS011;4734;52.778;6.798;2023-07-08T11:10:45;3.67;;;3.38;;
9388;SDS011;4734;52.778;6.798;2023-07-08T11:13:43;4.38;;;2.92;;
9388;SDS011;4734;52.778;6.798;2023-07-08T11:16:32;3.60;;;3.30;;
9388;SDS011;4734;52.778;6.798;2023-07-08T11:19:23;4.40;;;3.13;;
9388;SDS011;4734;52.778;6.798;2023-07-08T11:22:12;3.90;;;2.90;;
9388;SDS011;4734;52.778;6.798;2023-07-08T11:25:00;3.45;;;3.10;;
9388;SDS011;4734;52.778;6.798;2023-07-08T11:27:49;3.97;;;3.30;;
9388;SDS011;4734;52.778;6.798;2023-07-08T11:30:37;3.53;;;3.22;;
9388;SDS011;4734;52.778;6.798;2023-07-08T11:33:26;3.55;;;2.97;;
9388;SDS011;4734;52.778;6.798;2023-07-08T11:36:13;4.13;;;3.10;;
9388;SDS011;4734;52.778;6.798;2023-07-08T11:39:00;3.65;;;3.10;;
9388;SDS011;4734;52.778;6.798;2023-07-08T11:41:47;3.95;;;3.55;;
9388;SDS011;4734;52.778;6.798;2023-07-08T11:44:33;3.95;;;3.55;;
9388;SDS011;4734;52.778;6.798;2023-07-08T11:47:21;4.22;;;3.40;;
9388;SDS011;4734;52.778;6.798;2023-07-08T11:50:12;3.63;;;3.33;;
9388;SDS011;4734;52.778;6.798;2023-07-08T11:53:06;5.25;;;3.60;;
9388;SDS011;4734;52.778;6.798;2023-07-08T11:55:55;3.80;;;3.50;;
9388;SDS011;4734;52.778;6.798;2023-07-08T11:59:09;4.35;;;3.95;;
9388;SDS011;4734;52.778;6.798;2023-07-08T12:02:02;5.78;;;3.75;;
9388;SDS011;4734;52.778;6.798;2023-07-08T12:04:53;3.67;;;3.38;;
9388;SDS011;4734;52.778;6.798;2023-07-08T12:07:44;4.68;;;3.88;;
9388;SDS011;4734;52.778;6.798;2023-07-08T12:10:32;4.07;;;3.78;;
9388;SDS011;4734;52.778;6.798;2023-07-08T12:13:20;5.40;;;4.15;;
9388;SDS011;4734;52.778;6.798;2023-07-08T12:16:10;3.65;;;3.35;;
9388;SDS011;4734;52.778;6.798;2023-07-08T12:18:57;3.58;;;3.30;;
9388;SDS011;4734;52.778;6.798;2023-07-08T12:21:44;5.30;;;4.25;;
9388;SDS011;4734;52.778;6.798;2023-07-08T12:24:30;4.10;;;3.70;;
9388;SDS011;4734;52.778;6.798;2023-07-08T12:27:16;4.25;;;3.85;;
9388;SDS011;4734;52.778;6.798;2023-07-08T12:30:02;4.50;;;4.10;;
9388;SDS011;4734;52.778;6.798;2023-07-08T12:32:49;4.95;;;3.67;;
9388;SDS011;4734;52.778;6.798;2023-07-08T12:35:36;4.32;;;3.95;;
9388;SDS011;4734;52.778;6.798;2023-07-08T12:38:23;4.25;;;3.88;;
9388;SDS011;4734;52.778;6.798;2023-07-08T12:41:14;4.90;;;4.32;;
9388;SDS011;4734;52.778;6.798;2023-07-08T12:44:02;4.95;;;4.53;;
9388;SDS011;4734;52.778;6.798;2023-07-08T12:46:53;7.40;;;4.35;;
9388;SDS011;4734;52.778;6.798;2023-07-08T12:49:41;4.40;;;3.70;;
9388;SDS011;4734;52.778;6.798;2023-07-08T12:52:27;5.82;;;4.53;;
9388;SDS011;4734;52.778;6.798;2023-07-08T12:55:13;4.57;;;4.22;;
9388;SDS011;4734;52.778;6.798;2023-07-08T12:58:00;4.55;;;4.15;;
9388;SDS011;4734;52.778;6.798;2023-07-08T13:00:46;5.03;;;4.63;;
9388;SDS011;4734;52.778;6.798;2023-07-08T13:03:33;4.93;;;4.43;;
9388;SDS011;4734;52.778;6.798;2023-07-08T13:06:24;5.07;;;4.65;;
9388;SDS011;4734;52.778;6.798;2023-07-08T13:12:20;6.68;;;4.10;;
9388;SDS011;4734;52.778;6.798;2023-07-08T13:15:08;4.93;;;4.55;;
9388;SDS011;4734;52.778;6.798;2023-07-08T13:18:02;5.20;;;4.70;;
9388;SDS011;4734;52.778;6.798;2023-07-08T13:20:50;5.28;;;4.38;;
9388;SDS011;4734;52.778;6.798;2023-07-08T13:23:38;4.60;;;4.20;;
9388;SDS011;4734;52.778;6.798;2023-07-08T13:26:26;5.97;;;4.63;;
9388;SDS011;4734;52.778;6.798;2023-07-08T13:29:14;5.28;;;4.80;;
9388;SDS011;4734;52.778;6.798;2023-07-08T13:32:03;4.80;;;4.40;;
9388;SDS011;4734;52.778;6.798;2023-07-08T13:34:50;4.60;;;4.30;;
9388;SDS011;4734;52.778;6.798;2023-07-08T13:37:36;4.55;;;4.18;;
9388;SDS011;4734;52.778;6.798;2023-07-08T13:40:23;5.10;;;4.70;;
9388;SDS011;4734;52.778;6.798;2023-07-08T13:43:13;5.35;;;4.88;;
9388;SDS011;4734;52.778;6.798;2023-07-08T13:45:59;4.80;;;4.40;;
9388;SDS011;4734;52.778;6.798;2023-07-08T13:48:45;4.95;;;4.53;;
9388;SDS011;4734;52.778;6.798;2023-07-08T13:51:33;5.47;;;4.97;;
9388;SDS011;4734;52.778;6.798;2023-07-08T13:54:21;6.07;;;4.57;;
9388;SDS011;4734;52.778;6.798;2023-07-08T13:57:10;5.22;;;4.65;;
9388;SDS011;4734;52.778;6.798;2023-07-08T14:00:02;5.32;;;4.90;;
9388;SDS011;4734;52.778;6.798;2023-07-08T14:02:49;5.30;;;4.75;;
9388;SDS011;4734;52.778;6.798;2023-07-08T14:05:36;6.30;;;4.78;;
9388;SDS011;4734;52.778;6.798;2023-07-08T14:08:22;5.28;;;4.78;;
9388;SDS011;4734;52.778;6.798;2023-07-08T14:11:09;5.18;;;4.78;;
9388;SDS011;4734;52.778;6.798;2023-07-08T14:13:56;5.20;;;4.80;;
9388;SDS011;4734;52.778;6.798;2023-07-08T14:16:42;5.45;;;4.95;;
9388;SDS011;4734;52.778;6.798;2023-07-08T14:19:30;5.43;;;4.53;;
9388;SDS011;4734;52.778;6.798;2023-07-08T14:22:21;5.13;;;4.72;;
9388;SDS011;4734;52.778;6.798;2023-07-08T14:25:17;5.05;;;4.57;;
9388;SDS011;4734;52.778;6.798;2023-07-08T14:28:04;5.13;;;4.72;;
9388;SDS011;4734;52.778;6.798;2023-07-08T14:30:51;5.13;;;4.72;;
9388;SDS011;4734;52.778;6.798;2023-07-08T14:33:37;5.90;;;4.50;;
9388;SDS011;4734;52.778;6.798;2023-07-08T14:36:23;5.28;;;4.72;;
9388;SDS011;4734;52.778;6.798;2023-07-08T14:39:09;5.60;;;4.43;;
9388;SDS011;4734;52.778;6.798;2023-07-08T14:41:57;5.57;;;5.00;;
9388;SDS011;4734;52.778;6.798;2023-07-08T14:44:43;4.95;;;4.55;;
9388;SDS011;4734;52.778;6.798;2023-07-08T14:47:32;5.10;;;4.70;;
9388;SDS011;4734;52.778;6.798;2023-07-08T14:50:17;5.00;;;4.60;;
9388;SDS011;4734;52.778;6.798;2023-07-08T14:53:03;4.95;;;4.45;;
9388;SDS011;4734;52.778;6.798;2023-07-08T14:55:49;4.65;;;4.35;;
9388;SDS011;4734;52.778;6.798;2023-07-08T14:58:37;4.85;;;4.47;;
9388;SDS011;4734;52.778;6.798;2023-07-08T15:01:25;4.90;;;4.55;;
9388;SDS011;4734;52.778;6.798;2023-07-08T15:04:15;5.00;;;4.50;;
9388;SDS011;4734;52.778;6.798;2023-07-08T15:07:04;5.03;;;4.63;;
9388;SDS011;4734;52.778;6.798;2023-07-08T15:09:53;5.82;;;5.05;;
9388;SDS011;4734;52.778;6.798;2023-07-08T15:12:39;5.22;;;4.72;;
9388;SDS011;4734;52.778;6.798;2023-07-08T15:15:27;5.35;;;4.95;;
9388;SDS011;4734;52.778;6.798;2023-07-08T15:18:15;5.15;;;4.70;;
9388;SDS011;4734;52.778;6.798;2023-07-08T15:21:04;5.13;;;4.63;;
9388;SDS011;4734;52.778;6.798;2023-07-08T15:23:51;5.32;;;4.82;;
9388;SDS011;4734;52.778;6.798;2023-07-08T15:26:37;4.65;;;4.25;;
9388;SDS011;4734;52.778;6.798;2023-07-08T15:29:24;4.93;;;4.43;;
9388;SDS011;4734;52.778;6.798;2023-07-08T15:32:11;5.88;;;4.97;;
9388;SDS011;4734;52.778;6.798;2023-07-08T15:34:59;5.30;;;4.82;;
9388;SDS011;4734;52.778;6.798;2023-07-08T15:37:46;6.97;;;5.13;;
9388;SDS011;4734;52.778;6.798;2023-07-08T15:40:32;5.28;;;4.88;;
9388;SDS011;4734;52.778;6.798;2023-07-08T15:43:19;5.15;;;4.78;;
9388;SDS011;4734;52.778;6.798;2023-07-08T15:46:04;5.32;;;4.82;;
9388;SDS011;4734;52.778;6.798;2023-07-08T15:48:52;5.30;;;4.90;;
9388;SDS011;4734;52.778;6.798;2023-07-08T15:51:38;5.13;;;4.55;;
9388;SDS011;4734;52.778;6.798;2023-07-08T15:54:25;4.95;;;4.55;;
9388;SDS011;4734;52.778;6.798;2023-07-08T15:57:11;5.65;;;4.85;;
9388;SDS011;4734;52.778;6.798;2023-07-08T15:59:57;4.32;;;4.03;;
9388;SDS011;4734;52.778;6.798;2023-07-08T16:02:43;4.93;;;4.53;;
9388;SDS011;4734;52.778;6.798;2023-07-08T16:05:29;5.00;;;4.50;;
9388;SDS011;4734;52.778;6.798;2023-07-08T16:08:17;5.38;;;4.50;;
9388;SDS011;4734;52.778;6.798;2023-07-08T16:11:05;4.97;;;4.47;;
9388;SDS011;4734;52.778;6.798;2023-07-08T16:13:56;4.97;;;4.35;;
9388;SDS011;4734;52.778;6.798;2023-07-08T16:16:42;6.47;;;4.75;;
9388;SDS011;4734;52.778;6.798;2023-07-08T16:19:28;4.80;;;4.43;;
9388;SDS011;4734;52.778;6.798;2023-07-08T16:22:13;4.57;;;4.18;;
9388;SDS011;4734;52.778;6.798;2023-07-08T16:24:59;5.18;;;4.70;;
9388;SDS011;4734;52.778;6.798;2023-07-08T16:27:46;4.93;;;4.53;;
9388;SDS011;4734;52.778;6.798;2023-07-08T16:30:34;5.18;;;4.60;;
9388;SDS011;4734;52.778;6.798;2023-07-08T16:33:20;5.70;;;4.55;;
9388;SDS011;4734;52.778;6.798;2023-07-08T16:36:08;5.32;;;4.60;;
9388;SDS011;4734;52.778;6.798;2023-07-08T16:38:57;5.15;;;4.75;;
9388;SDS011;4734;52.778;6.798;2023-07-08T16:41:43;5.60;;;4.38;;
9388;SDS011;4734;52.778;6.798;2023-07-08T16:44:30;5.28;;;4.70;;
9388;SDS011;4734;52.778;6.798;2023-07-08T16:47:15;4.50;;;4.10;;
9388;SDS011;4734;52.778;6.798;2023-07-08T16:50:01;5.10;;;4.45;;
9388;SDS011;4734;52.778;6.798;2023-07-08T16:52:48;5.47;;;4.97;;
9388;SDS011;4734;52.778;6.798;2023-07-08T16:55:34;5.07;;;4.65;;
9388;SDS011;4734;52.778;6.798;2023-07-08T16:58:19;4.75;;;4.35;;
9388;SDS011;4734;52.778;6.798;2023-07-08T17:01:07;4.93;;;4.53;;
9388;SDS011;4734;52.778;6.798;2023-07-08T17:03:58;5.55;;;4.95;;
9388;SDS011;4734;52.778;6.798;2023-07-08T17:06:43;5.63;;;5.00;;
9388;SDS011;4734;52.778;6.798;2023-07-08T17:09:29;5.43;;;5.03;;
9388;SDS011;4734;52.778;6.798;2023-07-08T17:12:15;5.72;;;5.13;;
9388;SDS011;4734;52.778;6.798;2023-07-08T17:15:01;16.67;;;6.30;;
9388;SDS011;4734;52.778;6.798;2023-07-08T17:17:50;6.32;;;5.57;;
9388;SDS011;4734;52.778;6.798;2023-07-08T17:20:37;6.25;;;5.32;;
9388;SDS011;4734;52.778;6.798;2023-07-08T17:23:23;6.50;;;5.13;;
9388;SDS011;4734;52.778;6.798;2023-07-08T17:26:09;5.53;;;5.13;;
9388;SDS011;4734;52.778;6.798;2023-07-08T17:28:54;6.53;;;5.40;;
9388;SDS011;4734;52.778;6.798;2023-07-08T17:31:40;5.78;;;5.25;;